Terminal Aerodrome Forecast
Issued by NWS

Home | Current Version | Previous Version | Text Only | Print | Product List | Glossary On
Versions: 1 2 3 4 5 6 7 8 9 10 11 12 13 14 15 16
259
FTUS42 KILM 090538
TAFCRE
TAF
KCRE 090538Z 0906/1006 26007KT P6SM BKN070
     FM091300 25015G25KT P6SM SCT050 BKN090
     FM091700 25017G27KT P6SM BKN045
     FM100100 25010G15KT P6SM OVC080=

USA.gov is the U.S. government's official web portal to all federal, state and local government web resources and services.